Аэропорт: Пашковский. Краснодар

ICAO: URKK

METAR:
2022-06-26 12:00:00
URKK 261200Z 03007MPS 9000 -SHRA SCT015 BKN043CB 20/19 Q1009 R05R/290060 TEMPO 1000 TSRA SCT005 BKN020CB RMK QFE754
METAR:
2022-06-26 10:55:00
TAF URKK 261055Z 2612/2712 05003G08MPS 9999 SCT016 BKN030CB TEMPO 2612/2712 01007G13MPS 3000 -TSRA SCT007 BKN020CB